sensor_id;sensor_type;location;lat;lon;timestamp;P1;durP1;ratioP1;P2;durP2;ratioP2
57858;SDS011;49153;45.568;11.894;2022-12-11T00:00:17;8.68;;;6.13;;
57858;SDS011;49153;45.568;11.894;2022-12-11T00:02:43;10.73;;;6.68;;
57858;SDS011;49153;45.568;11.894;2022-12-11T00:05:08;9.95;;;6.40;;
57858;SDS011;49153;45.568;11.894;2022-12-11T00:07:34;10.90;;;6.78;;
57858;SDS011;49153;45.568;11.894;2022-12-11T00:09:59;11.02;;;6.47;;
57858;SDS011;49153;45.568;11.894;2022-12-11T00:12:25;11.98;;;7.00;;
57858;SDS011;49153;45.568;11.894;2022-12-11T00:14:50;10.90;;;7.10;;
57858;SDS011;49153;45.568;11.894;2022-12-11T00:17:16;10.23;;;6.82;;
57858;SDS011;49153;45.568;11.894;2022-12-11T00:19:42;9.98;;;6.60;;
57858;SDS011;49153;45.568;11.894;2022-12-11T00:22:07;11.30;;;6.90;;
57858;SDS011;49153;45.568;11.894;2022-12-11T00:24:33;11.65;;;6.40;;
57858;SDS011;49153;45.568;11.894;2022-12-11T00:26:58;9.23;;;6.82;;
57858;SDS011;49153;45.568;11.894;2022-12-11T00:29:24;11.02;;;6.72;;
57858;SDS011;49153;45.568;11.894;2022-12-11T00:31:49;9.05;;;6.25;;
57858;SDS011;49153;45.568;11.894;2022-12-11T00:34:14;8.45;;;5.88;;
57858;SDS011;49153;45.568;11.894;2022-12-11T00:36:40;11.75;;;6.13;;
57858;SDS011;49153;45.568;11.894;2022-12-11T00:39:05;8.65;;;5.43;;
57858;SDS011;49153;45.568;11.894;2022-12-11T00:41:31;8.63;;;5.90;;
57858;SDS011;49153;45.568;11.894;2022-12-11T00:43:56;8.65;;;5.47;;
57858;SDS011;49153;45.568;11.894;2022-12-11T00:46:22;7.78;;;5.25;;
57858;SDS011;49153;45.568;11.894;2022-12-11T00:48:47;7.55;;;5.28;;
57858;SDS011;49153;45.568;11.894;2022-12-11T00:51:14;9.00;;;5.53;;
57858;SDS011;49153;45.568;11.894;2022-12-11T00:53:40;8.02;;;5.50;;
57858;SDS011;49153;45.568;11.894;2022-12-11T00:56:16;6.57;;;4.80;;
57858;SDS011;49153;45.568;11.894;2022-12-11T00:58:43;7.15;;;4.97;;
57858;SDS011;49153;45.568;11.894;2022-12-11T01:01:11;7.10;;;5.13;;
57858;SDS011;49153;45.568;11.894;2022-12-11T01:03:38;6.65;;;4.93;;
57858;SDS011;49153;45.568;11.894;2022-12-11T01:06:04;6.63;;;5.00;;
57858;SDS011;49153;45.568;11.894;2022-12-11T01:08:30;6.63;;;5.20;;
57858;SDS011;49153;45.568;11.894;2022-12-11T01:11:08;7.97;;;6.00;;
57858;SDS011;49153;45.568;11.894;2022-12-11T01:13:36;7.63;;;5.38;;
57858;SDS011;49153;45.568;11.894;2022-12-11T01:16:08;7.80;;;5.43;;
57858;SDS011;49153;45.568;11.894;2022-12-11T01:18:36;7.15;;;5.05;;
57858;SDS011;49153;45.568;11.894;2022-12-11T01:21:09;7.88;;;5.32;;
57858;SDS011;49153;45.568;11.894;2022-12-11T01:23:37;8.30;;;5.38;;
57858;SDS011;49153;45.568;11.894;2022-12-11T01:26:11;6.25;;;4.90;;
57858;SDS011;49153;45.568;11.894;2022-12-11T01:28:38;6.72;;;5.30;;
57858;SDS011;49153;45.568;11.894;2022-12-11T01:31:12;7.93;;;5.88;;
57858;SDS011;49153;45.568;11.894;2022-12-11T01:33:39;8.40;;;5.97;;
57858;SDS011;49153;45.568;11.894;2022-12-11T01:36:09;10.55;;;6.30;;
57858;SDS011;49153;45.568;11.894;2022-12-11T01:38:35;8.82;;;5.78;;
57858;SDS011;49153;45.568;11.894;2022-12-11T01:41:01;9.77;;;5.35;;
57858;SDS011;49153;45.568;11.894;2022-12-11T01:43:27;7.80;;;4.97;;
57858;SDS011;49153;45.568;11.894;2022-12-11T01:45:52;9.77;;;5.43;;
57858;SDS011;49153;45.568;11.894;2022-12-11T01:48:19;8.27;;;5.32;;
57858;SDS011;49153;45.568;11.894;2022-12-11T01:53:23;6.25;;;4.75;;
57858;SDS011;49153;45.568;11.894;2022-12-11T01:55:54;4.20;;;3.42;;
57858;SDS011;49153;45.568;11.894;2022-12-11T01:58:22;6.47;;;4.70;;
57858;SDS011;49153;45.568;11.894;2022-12-11T02:00:52;7.78;;;5.28;;
57858;SDS011;49153;45.568;11.894;2022-12-11T02:03:19;7.97;;;5.47;;
57858;SDS011;49153;45.568;11.894;2022-12-11T02:05:45;8.88;;;6.05;;
57858;SDS011;49153;45.568;11.894;2022-12-11T02:08:11;7.40;;;5.88;;
57858;SDS011;49153;45.568;11.894;2022-12-11T02:11:00;7.45;;;5.45;;
57858;SDS011;49153;45.568;11.894;2022-12-11T02:13:33;6.82;;;5.00;;
57858;SDS011;49153;45.568;11.894;2022-12-11T02:29:36;6.13;;;4.18;;
57858;SDS011;49153;45.568;11.894;2022-12-11T02:32:09;7.95;;;4.38;;
57858;SDS011;49153;45.568;11.894;2022-12-11T02:34:45;6.03;;;4.65;;
57858;SDS011;49153;45.568;11.894;2022-12-11T02:37:19;6.10;;;4.50;;
57858;SDS011;49153;45.568;11.894;2022-12-11T02:39:47;7.28;;;4.75;;
57858;SDS011;49153;45.568;11.894;2022-12-11T02:42:17;6.70;;;4.47;;
57858;SDS011;49153;45.568;11.894;2022-12-11T02:44:43;5.85;;;4.43;;
57858;SDS011;49153;45.568;11.894;2022-12-11T02:47:13;7.22;;;4.82;;
57858;SDS011;49153;45.568;11.894;2022-12-11T02:49:41;6.93;;;4.75;;
57858;SDS011;49153;45.568;11.894;2022-12-11T02:52:09;6.38;;;4.20;;
57858;SDS011;49153;45.568;11.894;2022-12-11T02:54:38;5.95;;;4.40;;
57858;SDS011;49153;45.568;11.894;2022-12-11T02:57:12;6.10;;;4.50;;
57858;SDS011;49153;45.568;11.894;2022-12-11T02:59:41;6.10;;;4.43;;
57858;SDS011;49153;45.568;11.894;2022-12-11T03:02:09;5.90;;;4.55;;
57858;SDS011;49153;45.568;11.894;2022-12-11T03:04:36;5.82;;;4.40;;
57858;SDS011;49153;45.568;11.894;2022-12-11T03:07:02;5.93;;;4.13;;
57858;SDS011;49153;45.568;11.894;2022-12-11T03:09:38;6.05;;;4.35;;
57858;SDS011;49153;45.568;11.894;2022-12-11T03:12:05;5.22;;;4.22;;
57858;SDS011;49153;45.568;11.894;2022-12-11T03:14:33;6.30;;;4.40;;
57858;SDS011;49153;45.568;11.894;2022-12-11T03:17:03;5.75;;;4.40;;
57858;SDS011;49153;45.568;11.894;2022-12-11T03:19:40;5.45;;;4.13;;
57858;SDS011;49153;45.568;11.894;2022-12-11T03:22:20;5.88;;;4.30;;
57858;SDS011;49153;45.568;11.894;2022-12-11T03:25:01;5.20;;;3.92;;
57858;SDS011;49153;45.568;11.894;2022-12-11T03:30:20;5.15;;;3.85;;
57858;SDS011;49153;45.568;11.894;2022-12-11T03:32:57;5.30;;;3.90;;
57858;SDS011;49153;45.568;11.894;2022-12-11T03:35:29;5.88;;;4.10;;
57858;SDS011;49153;45.568;11.894;2022-12-11T03:38:04;4.63;;;3.85;;
57858;SDS011;49153;45.568;11.894;2022-12-11T03:40:32;4.88;;;3.85;;
57858;SDS011;49153;45.568;11.894;2022-12-11T03:43:00;5.43;;;3.72;;
57858;SDS011;49153;45.568;11.894;2022-12-11T03:45:27;6.47;;;4.50;;
57858;SDS011;49153;45.568;11.894;2022-12-11T03:47:54;6.30;;;4.63;;
57858;SDS011;49153;45.568;11.894;2022-12-11T03:50:23;6.30;;;4.50;;
57858;SDS011;49153;45.568;11.894;2022-12-11T03:52:52;7.22;;;4.75;;
57858;SDS011;49153;45.568;11.894;2022-12-11T03:55:20;6.07;;;4.43;;
57858;SDS011;49153;45.568;11.894;2022-12-11T03:57:46;4.95;;;4.03;;
57858;SDS011;49153;45.568;11.894;2022-12-11T04:00:13;5.55;;;4.25;;
57858;SDS011;49153;45.568;11.894;2022-12-11T04:02:42;5.90;;;4.38;;
57858;SDS011;49153;45.568;11.894;2022-12-11T04:05:08;6.65;;;4.53;;
57858;SDS011;49153;45.568;11.894;2022-12-11T04:07:34;5.85;;;4.80;;
57858;SDS011;49153;45.568;11.894;2022-12-11T04:09:59;6.72;;;4.50;;
57858;SDS011;49153;45.568;11.894;2022-12-11T04:12:25;6.28;;;4.55;;
57858;SDS011;49153;45.568;11.894;2022-12-11T04:14:51;6.25;;;4.80;;
57858;SDS011;49153;45.568;11.894;2022-12-11T04:17:26;7.85;;;4.85;;
57858;SDS011;49153;45.568;11.894;2022-12-11T04:20:11;6.45;;;4.80;;
57858;SDS011;49153;45.568;11.894;2022-12-11T04:22:55;7.20;;;5.00;;
57858;SDS011;49153;45.568;11.894;2022-12-11T04:25:39;7.28;;;5.05;;
57858;SDS011;49153;45.568;11.894;2022-12-11T04:28:05;7.50;;;5.25;;
57858;SDS011;49153;45.568;11.894;2022-12-11T04:30:30;7.20;;;4.10;;
57858;SDS011;49153;45.568;11.894;2022-12-11T04:32:55;4.07;;;3.22;;
57858;SDS011;49153;45.568;11.894;2022-12-11T04:35:21;4.88;;;3.28;;
57858;SDS011;49153;45.568;11.894;2022-12-11T04:37:47;3.70;;;2.72;;
57858;SDS011;49153;45.568;11.894;2022-12-11T04:40:14;3.08;;;2.30;;
57858;SDS011;49153;45.568;11.894;2022-12-11T04:42:42;2.40;;;1.80;;
57858;SDS011;49153;45.568;11.894;2022-12-11T04:45:08;2.80;;;1.92;;
57858;SDS011;49153;45.568;11.894;2022-12-11T04:47:35;1.90;;;1.58;;
57858;SDS011;49153;45.568;11.894;2022-12-11T04:50:03;3.80;;;1.60;;
57858;SDS011;49153;45.568;11.894;2022-12-11T04:52:29;2.15;;;1.40;;
57858;SDS011;49153;45.568;11.894;2022-12-11T04:54:55;1.88;;;1.35;;
57858;SDS011;49153;45.568;11.894;2022-12-11T04:57:20;2.22;;;1.40;;
57858;SDS011;49153;45.568;11.894;2022-12-11T04:59:46;2.65;;;1.58;;
57858;SDS011;49153;45.568;11.894;2022-12-11T05:02:11;2.90;;;1.50;;
57858;SDS011;49153;45.568;11.894;2022-12-11T05:04:37;3.00;;;1.35;;
57858;SDS011;49153;45.568;11.894;2022-12-11T05:07:03;1.67;;;1.10;;
57858;SDS011;49153;45.568;11.894;2022-12-11T05:09:28;2.45;;;1.25;;
57858;SDS011;49153;45.568;11.894;2022-12-11T05:11:53;1.60;;;0.90;;
57858;SDS011;49153;45.568;11.894;2022-12-11T05:14:19;1.10;;;0.80;;
57858;SDS011;49153;45.568;11.894;2022-12-11T05:16:45;1.00;;;0.80;;
57858;SDS011;49153;45.568;11.894;2022-12-11T05:19:11;0.68;;;0.68;;
57858;SDS011;49153;45.568;11.894;2022-12-11T05:21:36;1.15;;;1.02;;
57858;SDS011;49153;45.568;11.894;2022-12-11T05:24:02;0.70;;;0.60;;
57858;SDS011;49153;45.568;11.894;2022-12-11T05:26:28;0.90;;;0.60;;
57858;SDS011;49153;45.568;11.894;2022-12-11T05:28:53;0.80;;;0.60;;
57858;SDS011;49153;45.568;11.894;2022-12-11T05:31:20;3.03;;;0.90;;
57858;SDS011;49153;45.568;11.894;2022-12-11T05:33:48;0.98;;;0.80;;
57858;SDS011;49153;45.568;11.894;2022-12-11T05:38:53;0.88;;;0.70;;
57858;SDS011;49153;45.568;11.894;2022-12-11T05:41:20;0.70;;;0.50;;
57858;SDS011;49153;45.568;11.894;2022-12-11T05:43:47;2.80;;;0.57;;
57858;SDS011;49153;45.568;11.894;2022-12-11T05:46:17;0.73;;;0.40;;
57858;SDS011;49153;45.568;11.894;2022-12-11T05:48:45;1.08;;;0.50;;
57858;SDS011;49153;45.568;11.894;2022-12-11T05:51:13;1.08;;;0.60;;
57858;SDS011;49153;45.568;11.894;2022-12-11T05:53:40;0.70;;;0.60;;
57858;SDS011;49153;45.568;11.894;2022-12-11T05:56:08;0.40;;;0.40;;
57858;SDS011;49153;45.568;11.894;2022-12-11T05:58:36;1.70;;;0.50;;
57858;SDS011;49153;45.568;11.894;2022-12-11T06:01:01;0.65;;;0.47;;
57858;SDS011;49153;45.568;11.894;2022-12-11T06:03:30;0.77;;;0.60;;
57858;SDS011;49153;45.568;11.894;2022-12-11T06:05:56;0.95;;;0.60;;
57858;SDS011;49153;45.568;11.894;2022-12-11T06:08:21;1.27;;;0.50;;
57858;SDS011;49153;45.568;11.894;2022-12-11T06:10:47;0.60;;;0.50;;
57858;SDS011;49153;45.568;11.894;2022-12-11T06:13:14;0.77;;;0.60;;
57858;SDS011;49153;45.568;11.894;2022-12-11T06:15:40;0.90;;;0.70;;
57858;SDS011;49153;45.568;11.894;2022-12-11T06:18:06;1.15;;;0.70;;
57858;SDS011;49153;45.568;11.894;2022-12-11T06:20:32;1.65;;;0.73;;
57858;SDS011;49153;45.568;11.894;2022-12-11T06:22:59;0.70;;;0.50;;
57858;SDS011;49153;45.568;11.894;2022-12-11T06:25:25;0.60;;;0.55;;
57858;SDS011;49153;45.568;11.894;2022-12-11T06:27:51;1.27;;;0.80;;
57858;SDS011;49153;45.568;11.894;2022-12-11T06:30:16;0.98;;;0.70;;
57858;SDS011;49153;45.568;11.894;2022-12-11T06:32:42;1.02;;;0.63;;
57858;SDS011;49153;45.568;11.894;2022-12-11T06:35:08;0.85;;;0.70;;
57858;SDS011;49153;45.568;11.894;2022-12-11T06:37:34;0.63;;;0.63;;
57858;SDS011;49153;45.568;11.894;2022-12-11T06:40:00;1.65;;;0.60;;
57858;SDS011;49153;45.568;11.894;2022-12-11T06:42:27;1.20;;;0.70;;
57858;SDS011;49153;45.568;11.894;2022-12-11T06:44:54;1.77;;;1.00;;
57858;SDS011;49153;45.568;11.894;2022-12-11T06:47:21;1.67;;;1.10;;
57858;SDS011;49153;45.568;11.894;2022-12-11T06:49:47;0.90;;;0.73;;
57858;SDS011;49153;45.568;11.894;2022-12-11T06:52:12;0.90;;;0.70;;
57858;SDS011;49153;45.568;11.894;2022-12-11T06:54:37;1.70;;;1.02;;
57858;SDS011;49153;45.568;11.894;2022-12-11T06:57:03;1.50;;;0.80;;
57858;SDS011;49153;45.568;11.894;2022-12-11T06:59:29;0.93;;;0.80;;
57858;SDS011;49153;45.568;11.894;2022-12-11T07:01:54;1.23;;;0.70;;
57858;SDS011;49153;45.568;11.894;2022-12-11T07:04:20;1.30;;;0.90;;
57858;SDS011;49153;45.568;11.894;2022-12-11T07:06:48;1.23;;;0.95;;
57858;SDS011;49153;45.568;11.894;2022-12-11T07:09:14;0.80;;;0.80;;
57858;SDS011;49153;45.568;11.894;2022-12-11T07:11:39;1.10;;;0.80;;
57858;SDS011;49153;45.568;11.894;2022-12-11T07:14:05;1.77;;;0.80;;
57858;SDS011;49153;45.568;11.894;2022-12-11T07:16:30;1.30;;;0.90;;
57858;SDS011;49153;45.568;11.894;2022-12-11T07:18:56;1.58;;;1.00;;
57858;SDS011;49153;45.568;11.894;2022-12-11T07:21:21;1.30;;;0.90;;
57858;SDS011;49153;45.568;11.894;2022-12-11T07:23:47;1.42;;;1.10;;
57858;SDS011;49153;45.568;11.894;2022-12-11T07:26:15;1.30;;;1.02;;
57858;SDS011;49153;45.568;11.894;2022-12-11T07:28:42;1.38;;;0.98;;
57858;SDS011;49153;45.568;11.894;2022-12-11T07:31:12;1.20;;;0.80;;
57858;SDS011;49153;45.568;11.894;2022-12-11T07:36:05;1.42;;;1.08;;
57858;SDS011;49153;45.568;11.894;2022-12-11T07:38:33;1.50;;;0.90;;
57858;SDS011;49153;45.568;11.894;2022-12-11T07:41:03;0.90;;;0.80;;
57858;SDS011;49153;45.568;11.894;2022-12-11T07:43:29;1.63;;;1.20;;
57858;SDS011;49153;45.568;11.894;2022-12-11T07:45:59;2.17;;;1.30;;
57858;SDS011;49153;45.568;11.894;2022-12-11T07:48:29;2.33;;;1.73;;
57858;SDS011;49153;45.568;11.894;2022-12-11T07:50:54;1.20;;;0.90;;
57858;SDS011;49153;45.568;11.894;2022-12-11T07:53:20;1.60;;;1.30;;
57858;SDS011;49153;45.568;11.894;2022-12-11T07:55:46;3.08;;;1.48;;
57858;SDS011;49153;45.568;11.894;2022-12-11T07:58:11;4.43;;;2.10;;
57858;SDS011;49153;45.568;11.894;2022-12-11T08:00:36;5.15;;;2.30;;
57858;SDS011;49153;45.568;11.894;2022-12-11T08:03:02;3.30;;;2.13;;
57858;SDS011;49153;45.568;11.894;2022-12-11T08:05:27;2.67;;;1.80;;
57858;SDS011;49153;45.568;11.894;2022-12-11T08:07:53;3.97;;;2.05;;
57858;SDS011;49153;45.568;11.894;2022-12-11T08:10:18;4.55;;;2.33;;
57858;SDS011;49153;45.568;11.894;2022-12-11T08:12:44;3.05;;;1.90;;
57858;SDS011;49153;45.568;11.894;2022-12-11T08:15:09;3.95;;;2.78;;
57858;SDS011;49153;45.568;11.894;2022-12-11T08:17:35;2.15;;;1.30;;
57858;SDS011;49153;45.568;11.894;2022-12-11T08:20:00;1.92;;;1.10;;
57858;SDS011;49153;45.568;11.894;2022-12-11T08:22:26;4.20;;;1.30;;
57858;SDS011;49153;45.568;11.894;2022-12-11T08:24:51;2.15;;;1.55;;
57858;SDS011;49153;45.568;11.894;2022-12-11T08:27:16;1.90;;;1.00;;
57858;SDS011;49153;45.568;11.894;2022-12-11T08:29:42;2.05;;;1.30;;
57858;SDS011;49153;45.568;11.894;2022-12-11T08:32:07;1.52;;;1.10;;
57858;SDS011;49153;45.568;11.894;2022-12-11T08:34:33;1.50;;;1.27;;
57858;SDS011;49153;45.568;11.894;2022-12-11T08:36:58;1.90;;;1.50;;
57858;SDS011;49153;45.568;11.894;2022-12-11T08:39:24;1.92;;;1.10;;
57858;SDS011;49153;45.568;11.894;2022-12-11T08:41:49;1.88;;;1.30;;
57858;SDS011;49153;45.568;11.894;2022-12-11T08:44:14;3.03;;;1.83;;
57858;SDS011;49153;45.568;11.894;2022-12-11T08:46:40;2.00;;;1.33;;
57858;SDS011;49153;45.568;11.894;2022-12-11T08:49:05;2.83;;;1.77;;
57858;SDS011;49153;45.568;11.894;2022-12-11T08:51:31;3.05;;;2.17;;
57858;SDS011;49153;45.568;11.894;2022-12-11T08:53:57;5.50;;;3.35;;
57858;SDS011;49153;45.568;11.894;2022-12-11T08:56:24;3.90;;;2.42;;
57858;SDS011;49153;45.568;11.894;2022-12-11T08:58:51;5.07;;;3.33;;
57858;SDS011;49153;45.568;11.894;2022-12-11T09:01:18;5.68;;;3.05;;
57858;SDS011;49153;45.568;11.894;2022-12-11T09:03:46;7.78;;;4.65;;
57858;SDS011;49153;45.568;11.894;2022-12-11T09:06:13;5.10;;;3.00;;
57858;SDS011;49153;45.568;11.894;2022-12-11T09:08:41;3.65;;;2.28;;
57858;SDS011;49153;45.568;11.894;2022-12-11T09:11:09;3.50;;;1.95;;
57858;SDS011;49153;45.568;11.894;2022-12-11T09:13:37;2.03;;;1.52;;
57858;SDS011;49153;45.568;11.894;2022-12-11T09:16:05;2.33;;;1.98;;
57858;SDS011;49153;45.568;11.894;2022-12-11T09:18:31;3.33;;;1.80;;
57858;SDS011;49153;45.568;11.894;2022-12-11T09:20:57;2.38;;;1.55;;
57858;SDS011;49153;45.568;11.894;2022-12-11T09:23:24;3.35;;;2.22;;
57858;SDS011;49153;45.568;11.894;2022-12-11T09:25:49;3.28;;;2.22;;
57858;SDS011;49153;45.568;11.894;2022-12-11T09:28:15;2.47;;;1.80;;
57858;SDS011;49153;45.568;11.894;2022-12-11T09:30:40;3.17;;;2.20;;
57858;SDS011;49153;45.568;11.894;2022-12-11T09:33:05;3.05;;;2.20;;
57858;SDS011;49153;45.568;11.894;2022-12-11T09:35:31;3.42;;;2.40;;
57858;SDS011;49153;45.568;11.894;2022-12-11T09:37:56;2.95;;;2.35;;
57858;SDS011;49153;45.568;11.894;2022-12-11T09:40:22;3.28;;;1.90;;
57858;SDS011;49153;45.568;11.894;2022-12-11T09:42:52;3.00;;;2.17;;
57858;SDS011;49153;45.568;11.894;2022-12-11T09:45:20;3.92;;;2.50;;
57858;SDS011;49153;45.568;11.894;2022-12-11T09:47:47;3.03;;;2.20;;
57858;SDS011;49153;45.568;11.894;2022-12-11T09:50:19;4.07;;;3.03;;
57858;SDS011;49153;45.568;11.894;2022-12-11T09:55:16;3.70;;;2.63;;
57858;SDS011;49153;45.568;11.894;2022-12-11T09:57:51;3.70;;;2.50;;
57858;SDS011;49153;45.568;11.894;2022-12-11T10:00:25;2.85;;;2.10;;
57858;SDS011;49153;45.568;11.894;2022-12-11T10:03:05;2.80;;;2.00;;
57858;SDS011;49153;45.568;11.894;2022-12-11T10:13:53;3.83;;;1.90;;
57858;SDS011;49153;45.568;11.894;2022-12-11T10:18:58;1.70;;;1.13;;
57858;SDS011;49153;45.568;11.894;2022-12-11T10:21:23;2.17;;;1.40;;
57858;SDS011;49153;45.568;11.894;2022-12-11T10:23:55;1.77;;;1.27;;
57858;SDS011;49153;45.568;11.894;2022-12-11T10:26:26;3.20;;;1.75;;
57858;SDS011;49153;45.568;11.894;2022-12-11T10:28:58;4.10;;;2.20;;
57858;SDS011;49153;45.568;11.894;2022-12-11T10:34:13;2.13;;;1.30;;
57858;SDS011;49153;45.568;11.894;2022-12-11T10:36:45;3.88;;;1.45;;
57858;SDS011;49153;45.568;11.894;2022-12-11T10:39:11;1.50;;;1.10;;
57858;SDS011;49153;45.568;11.894;2022-12-11T10:41:41;1.98;;;1.35;;
57858;SDS011;49153;45.568;11.894;2022-12-11T10:46:47;1.65;;;1.05;;
57858;SDS011;49153;45.568;11.894;2022-12-11T10:49:27;1.73;;;1.17;;
57858;SDS011;49153;45.568;11.894;2022-12-11T10:51:54;2.10;;;1.10;;
57858;SDS011;49153;45.568;11.894;2022-12-11T10:59:32;1.20;;;0.85;;
57858;SDS011;49153;45.568;11.894;2022-12-11T11:02:02;2.53;;;1.40;;
57858;SDS011;49153;45.568;11.894;2022-12-11T11:04:30;2.35;;;1.33;;
57858;SDS011;49153;45.568;11.894;2022-12-11T11:07:44;2.00;;;1.30;;
57858;SDS011;49153;45.568;11.894;2022-12-11T11:09:47;1.52;;;1.20;;
57858;SDS011;49153;45.568;11.894;2022-12-11T11:12:17;1.20;;;1.00;;
57858;SDS011;49153;45.568;11.894;2022-12-11T11:14:58;2.97;;;1.50;;
57858;SDS011;49153;45.568;11.894;2022-12-11T11:17:25;2.60;;;1.70;;
57858;SDS011;49153;45.568;11.894;2022-12-11T11:19:50;2.13;;;1.70;;
57858;SDS011;49153;45.568;11.894;2022-12-11T11:22:16;8.70;;;4.10;;
57858;SDS011;49153;45.568;11.894;2022-12-11T11:24:44;6.60;;;3.00;;
57858;SDS011;49153;45.568;11.894;2022-12-11T11:27:30;6.40;;;3.17;;
57858;SDS011;49153;45.568;11.894;2022-12-11T11:30:04;4.38;;;2.72;;
57858;SDS011;49153;45.568;11.894;2022-12-11T11:32:33;6.90;;;4.40;;
57858;SDS011;49153;45.568;11.894;2022-12-11T11:37:37;1.83;;;1.33;;
57858;SDS011;49153;45.568;11.894;2022-12-11T11:40:07;1.83;;;1.40;;
57858;SDS011;49153;45.568;11.894;2022-12-11T11:42:44;2.00;;;1.20;;
57858;SDS011;49153;45.568;11.894;2022-12-11T11:45:36;1.90;;;1.20;;
57858;SDS011;49153;45.568;11.894;2022-12-11T11:51:06;2.67;;;1.50;;
57858;SDS011;49153;45.568;11.894;2022-12-11T11:53:39;1.88;;;1.35;;
57858;SDS011;49153;45.568;11.894;2022-12-11T11:58:40;1.90;;;1.38;;
57858;SDS011;49153;45.568;11.894;2022-12-11T12:01:14;2.17;;;1.42;;
57858;SDS011;49153;45.568;11.894;2022-12-11T12:03:41;1.98;;;1.25;;
57858;SDS011;49153;45.568;11.894;2022-12-11T12:08:46;2.97;;;2.10;;
57858;SDS011;49153;45.568;11.894;2022-12-11T12:11:38;3.38;;;2.17;;
57858;SDS011;49153;45.568;11.894;2022-12-11T12:22:04;2.83;;;1.90;;
57858;SDS011;49153;45.568;11.894;2022-12-11T12:27:53;2.63;;;1.70;;
57858;SDS011;49153;45.568;11.894;2022-12-11T12:30:21;3.90;;;1.90;;
57858;SDS011;49153;45.568;11.894;2022-12-11T12:33:34;3.70;;;2.28;;
57858;SDS011;49153;45.568;11.894;2022-12-11T12:35:39;3.35;;;2.20;;
57858;SDS011;49153;45.568;11.894;2022-12-11T12:38:15;4.53;;;1.80;;
57858;SDS011;49153;45.568;11.894;2022-12-11T12:46:31;2.67;;;1.50;;
57858;SDS011;49153;45.568;11.894;2022-12-11T12:49:03;3.67;;;1.98;;
57858;SDS011;49153;45.568;11.894;2022-12-11T12:51:37;3.75;;;1.95;;
57858;SDS011;49153;45.568;11.894;2022-12-11T12:54:03;3.63;;;2.03;;
57858;SDS011;49153;45.568;11.894;2022-12-11T12:56:33;3.22;;;2.05;;
57858;SDS011;49153;45.568;11.894;2022-12-11T12:59:01;3.15;;;2.08;;
57858;SDS011;49153;45.568;11.894;2022-12-11T13:01:27;3.63;;;2.05;;
57858;SDS011;49153;45.568;11.894;2022-12-11T13:03:56;3.65;;;2.40;;
57858;SDS011;49153;45.568;11.894;2022-12-11T13:06:39;4.22;;;2.22;;
57858;SDS011;49153;45.568;11.894;2022-12-11T13:11:50;3.35;;;2.40;;
57858;SDS011;49153;45.568;11.894;2022-12-11T13:14:31;4.97;;;3.35;;
57858;SDS011;49153;45.568;11.894;2022-12-11T13:19:44;3.92;;;2.45;;
57858;SDS011;49153;45.568;11.894;2022-12-11T13:27:35;3.03;;;1.77;;
57858;SDS011;49153;45.568;11.894;2022-12-11T13:30:07;4.45;;;3.25;;
57858;SDS011;49153;45.568;11.894;2022-12-11T13:33:00;3.67;;;2.17;;
57858;SDS011;49153;45.568;11.894;2022-12-11T13:35:28;3.60;;;2.05;;
57858;SDS011;49153;45.568;11.894;2022-12-11T13:37:57;2.97;;;2.13;;
57858;SDS011;49153;45.568;11.894;2022-12-11T13:40:31;5.40;;;2.58;;
57858;SDS011;49153;45.568;11.894;2022-12-11T13:43:03;3.95;;;2.80;;
57858;SDS011;49153;45.568;11.894;2022-12-11T13:45:36;5.05;;;3.10;;
57858;SDS011;49153;45.568;11.894;2022-12-11T13:50:51;5.20;;;3.20;;
57858;SDS011;49153;45.568;11.894;2022-12-11T13:53:18;5.65;;;3.60;;
57858;SDS011;49153;45.568;11.894;2022-12-11T13:55:45;5.75;;;3.42;;
57858;SDS011;49153;45.568;11.894;2022-12-11T13:58:20;6.03;;;3.10;;
57858;SDS011;49153;45.568;11.894;2022-12-11T14:01:06;5.43;;;3.70;;
57858;SDS011;49153;45.568;11.894;2022-12-11T14:03:47;3.60;;;2.42;;
57858;SDS011;49153;45.568;11.894;2022-12-11T14:06:34;4.25;;;2.58;;
57858;SDS011;49153;45.568;11.894;2022-12-11T14:09:02;4.03;;;2.63;;
57858;SDS011;49153;45.568;11.894;2022-12-11T14:11:36;4.65;;;2.90;;
57858;SDS011;49153;45.568;11.894;2022-12-11T14:14:06;4.30;;;2.67;;
57858;SDS011;49153;45.568;11.894;2022-12-11T14:16:40;4.45;;;2.83;;
57858;SDS011;49153;45.568;11.894;2022-12-11T14:19:06;4.15;;;2.55;;
57858;SDS011;49153;45.568;11.894;2022-12-11T14:21:35;4.20;;;3.00;;
57858;SDS011;49153;45.568;11.894;2022-12-11T14:24:01;5.15;;;3.25;;
57858;SDS011;49153;45.568;11.894;2022-12-11T14:26:29;6.30;;;3.63;;
57858;SDS011;49153;45.568;11.894;2022-12-11T14:28:57;7.68;;;3.88;;
57858;SDS011;49153;45.568;11.894;2022-12-11T14:33:52;4.30;;;2.85;;
57858;SDS011;49153;45.568;11.894;2022-12-11T14:36:23;12.07;;;5.13;;
57858;SDS011;49153;45.568;11.894;2022-12-11T14:38:54;8.82;;;4.35;;
57858;SDS011;49153;45.568;11.894;2022-12-11T14:42:09;9.40;;;5.03;;
57858;SDS011;49153;45.568;11.894;2022-12-11T14:44:42;5.85;;;3.28;;
57858;SDS011;49153;45.568;11.894;2022-12-11T14:47:14;4.07;;;2.90;;
57858;SDS011;49153;45.568;11.894;2022-12-11T14:49:48;4.03;;;3.00;;
57858;SDS011;49153;45.568;11.894;2022-12-11T14:52:38;5.38;;;3.45;;
57858;SDS011;49153;45.568;11.894;2022-12-11T14:55:15;7.28;;;5.00;;
57858;SDS011;49153;45.568;11.894;2022-12-11T14:57:44;7.70;;;4.78;;
57858;SDS011;49153;45.568;11.894;2022-12-11T15:00:23;5.95;;;3.67;;
57858;SDS011;49153;45.568;11.894;2022-12-11T15:03:00;7.28;;;3.97;;
57858;SDS011;49153;45.568;11.894;2022-12-11T15:05:27;7.40;;;4.43;;
57858;SDS011;49153;45.568;11.894;2022-12-11T15:07:57;6.57;;;4.20;;
57858;SDS011;49153;45.568;11.894;2022-12-11T15:10:37;6.68;;;3.30;;
57858;SDS011;49153;45.568;11.894;2022-12-11T15:13:06;5.18;;;3.10;;
57858;SDS011;49153;45.568;11.894;2022-12-11T15:15:43;5.07;;;3.35;;
57858;SDS011;49153;45.568;11.894;2022-12-11T15:18:29;6.28;;;3.45;;
57858;SDS011;49153;45.568;11.894;2022-12-11T15:21:04;9.68;;;4.70;;
57858;SDS011;49153;45.568;11.894;2022-12-11T15:23:35;8.93;;;5.97;;
57858;SDS011;49153;45.568;11.894;2022-12-11T15:26:10;9.27;;;5.43;;
57858;SDS011;49153;45.568;11.894;2022-12-11T15:28:36;8.02;;;5.07;;
57858;SDS011;49153;45.568;11.894;2022-12-11T15:31:25;7.25;;;4.32;;
57858;SDS011;49153;45.568;11.894;2022-12-11T15:33:55;6.35;;;4.00;;
57858;SDS011;49153;45.568;11.894;2022-12-11T15:36:34;4.45;;;2.90;;
57858;SDS011;49153;45.568;11.894;2022-12-11T15:39:01;4.95;;;3.15;;
57858;SDS011;49153;45.568;11.894;2022-12-11T15:41:27;3.97;;;2.88;;
57858;SDS011;49153;45.568;11.894;2022-12-11T15:43:59;5.32;;;3.38;;
57858;SDS011;49153;45.568;11.894;2022-12-11T15:46:27;6.00;;;3.58;;
57858;SDS011;49153;45.568;11.894;2022-12-11T15:48:53;6.93;;;4.00;;
57858;SDS011;49153;45.568;11.894;2022-12-11T15:51:20;5.15;;;3.25;;
57858;SDS011;49153;45.568;11.894;2022-12-11T15:53:46;6.50;;;3.35;;
57858;SDS011;49153;45.568;11.894;2022-12-11T15:56:12;5.78;;;3.47;;
57858;SDS011;49153;45.568;11.894;2022-12-11T15:58:40;4.97;;;2.95;;
57858;SDS011;49153;45.568;11.894;2022-12-11T16:01:07;7.18;;;3.58;;
57858;SDS011;49153;45.568;11.894;2022-12-11T16:03:32;7.45;;;4.38;;
57858;SDS011;49153;45.568;11.894;2022-12-11T16:05:58;6.90;;;4.38;;
57858;SDS011;49153;45.568;11.894;2022-12-11T16:08:23;8.07;;;4.95;;
57858;SDS011;49153;45.568;11.894;2022-12-11T16:10:50;5.72;;;3.78;;
57858;SDS011;49153;45.568;11.894;2022-12-11T16:13:18;5.97;;;3.45;;
57858;SDS011;49153;45.568;11.894;2022-12-11T16:15:44;6.40;;;3.67;;